Apiliotis — SYVY — position and weather

sailwx.info

Track history (hours):
 
Tides and Currents Weather Stations Pressure Air Temp Water Temp Dewpoint Dewpoint Depression Visibility Wind Speed Wind Dir Waves Ship Positions

Apiliotis

Last reported at 2017-Aug-17 13:33 UTC. Time now 2017-Aug-18 03:01 UTC.
Position N 37°25' E 025°55'.

Length 79 m; draft 4.5 m.

Type: Ship. MMSI: 240438000.

Date/timePositionNaut miles runAvg speedWind from/ knotsBaromVisibWave heightAir tempDewpointWater temp
2017-Aug-17 13:33N 37°25' E 025°55'010.0
2017-Aug-17 13:30N 37°25' E 025°55'5 9.7
2017-Aug-17 13:01N 37°27' E 025°49'5 9.7
2017-Aug-17 12:28N 37°29' E 025°43'4 9.7
2017-Aug-17 12:00N 37°30' E 025°38'510.0
2017-Aug-17 11:30N 37°31' E 025°31'5 9.6
2017-Aug-17 11:01N 37°31' E 025°25'5 8.9
2017-Aug-17 10:27N 37°30' E 025°19'2 5.6
2017-Aug-17 10:01N 37°28' E 025°20'0 0.5
2017-Aug-17 09:29N 37°27' E 025°19'0 0.0
2017-Aug-17 08:59N 37°27' E 025°19'0 0.0
2017-Aug-17 08:29N 37°27' E 025°19'0 0.5
2017-Aug-17 08:00N 37°28' E 025°19'0 0.4
2017-Aug-17 07:30N 37°28' E 025°19'0 0.0
2017-Aug-17 07:00N 37°28' E 025°19'0 0.0
2017-Aug-17 06:30N 37°28' E 025°19'3 5.4
2017-Aug-17 06:00N 37°29' E 025°17'5 9.7
2017-Aug-17 05:31N 37°31' E 025°11'510.6
2017-Aug-17 05:01N 37°31' E 025°04'510.7
2017-Aug-17 04:31N 37°32' E 024°57'510.6
2017-Aug-17 04:01N 37°32' E 024°51'510.4
2017-Aug-17 03:31N 37°33' E 024°44'3710.3
2017-Aug-16 23:53N 37°36' E 023°57'511.9
2017-Aug-16 23:30N 37°37' E 023°52'611.9
2017-Aug-16 23:01N 37°39' E 023°45'611.2
2017-Aug-16 22:31N 37°43' E 023°40'611.7
2017-Aug-16 22:01N 37°48' E 023°37'510.7
2017-Aug-16 21:31N 37°50' E 023°31'611.6
2017-Aug-16 21:00N 37°53' E 023°24'5 9.3
2017-Aug-16 20:31N 37°57' E 023°24'4 7.9
2017-Aug-16 20:01N 38°00' E 023°28'611.1
2017-Aug-16 19:31N 38°02' E 023°34'1 2.0
2017-Aug-16 18:59N 38°02' E 023°36'0 0.0
2017-Aug-16 18:29N 38°02' E 023°36'0 0.0
2017-Aug-16 17:59N 38°02' E 023°36'0 0.0
2017-Aug-16 17:29N 38°02' E 023°36'0 0.0
2017-Aug-16 16:59N 38°02' E 023°36'0 0.0
2017-Aug-16 16:29N 38°02' E 023°36'0 0.0
2017-Aug-16 15:59N 38°02' E 023°36'0 0.0
2017-Aug-16 15:29N 38°02' E 023°36'0 0.0
2017-Aug-16 14:59N 38°02' E 023°36'0 0.0
2017-Aug-16 14:29N 38°02' E 023°36'0 0.0
2017-Aug-16 13:59N 38°02' E 023°36'0 0.0
2017-Aug-16 13:29N 38°02' E 023°36'0 0.0
2017-Aug-16 12:59N 38°02' E 023°36'0 0.0
2017-Aug-16 12:29N 38°02' E 023°36'0 0.0
2017-Aug-16 11:59N 38°02' E 023°36'0 0.0
2017-Aug-16 11:29N 38°02' E 023°36'0 0.0
2017-Aug-16 10:59N 38°02' E 023°36'0 0.0
2017-Aug-16 10:29N 38°02' E 023°36'3 5.7
2017-Aug-16 10:00N 38°02' E 023°32'0 0.1
2017-Aug-16 09:30N 38°02' E 023°32'0 0.0
2017-Aug-16 09:00N 38°02' E 023°32'0 0.0
2017-Aug-16 08:30N 38°02' E 023°32'0 0.0
2017-Aug-16 08:00N 38°02' E 023°32'0 0.0
2017-Aug-16 07:30N 38°02' E 023°32'0 0.0
2017-Aug-16 07:00N 38°02' E 023°32'0 0.0
2017-Aug-16 06:30N 38°02' E 023°32'0 0.0
2017-Aug-16 06:00N 38°02' E 023°32'0 0.0
2017-Aug-16 05:30N 38°02' E 023°32'0 0.0
2017-Aug-16 05:00N 38°02' E 023°32'0 0.0
2017-Aug-16 04:27N 38°02' E 023°32'2 5.2
2017-Aug-16 04:00N 37°60' E 023°33'5 9.2
2017-Aug-16 03:31N 37°56' E 023°35'5 9.4
2017-Aug-16 03:00N 37°52' E 023°38'510.7
2017-Aug-16 02:31N 37°47' E 023°41'510.8
2017-Aug-16 02:01N 37°42' E 023°44'5 9.8
2017-Aug-16 01:30N 37°39' E 023°50'1210.8
2017-Aug-16 00:26N 37°38' E 024°04'  
2017-Aug-13 15:50N 39°02' E 024°07'4911.1
2017-Aug-13 11:26N 39°39' E 024°48'711.3
2017-Aug-13 10:52N 39°44' E 024°54'710.8
2017-Aug-13 10:12N 39°50' E 024°60'210.6
2017-Aug-13 10:00N 39°51' E 025°01'2 0.3
2017-Aug-13 03:43N 39°52' E 025°03'1 4.6
2017-Aug-13 03:31N 39°52' E 025°02'3 5.9
2017-Aug-13 02:59N 39°49' E 025°02'  
2017-Aug-09 07:55N 37°23' E 025°55'410.6
2017-Aug-09 07:31N 37°24' E 025°50'510.6
2017-Aug-09 07:00N 37°26' E 025°43'510.9
2017-Aug-09 06:31N 37°27' E 025°37'611.2
2017-Aug-09 06:01N 37°29' E 025°30'611.1
2017-Aug-09 05:30N 37°31' E 025°23'4 8.5
2017-Aug-09 05:01N 37°29' E 025°18'2 3.8
2017-Aug-09 04:30N 37°28' E 025°19'0 0.0
2017-Aug-09 04:00N 37°28' E 025°19'0 0.0
2017-Aug-09 03:30N 37°28' E 025°19'0 0.0
2017-Aug-09 03:00N 37°28' E 025°19'0 0.0
2017-Aug-09 02:30N 37°28' E 025°19'0 0.5
2017-Aug-09 02:01N 37°28' E 025°19'510.8
2017-Aug-09 01:30N 37°29' E 025°13'510.6
2017-Aug-09 01:01N 37°30' E 025°06'610.9
2017-Aug-09 00:30N 37°31' E 024°59'511.4
2017-Aug-09 00:01N 37°32' E 024°52'510.9
2017-Aug-08 23:30N 37°31' E 024°45'  
Track history (hours):
 
Tides and Currents Weather Stations Pressure Air Temp Water Temp Dewpoint Dewpoint Depression Visibility Wind Speed Wind Dir Waves Ship Positions

Apiliotis

Last reported at 2017-Aug-17 13:33 UTC. Time now 2017-Aug-18 03:01 UTC.
Position N 37°25' E 025°55'.

Length 79 m; draft 4.5 m.

Type: Ship. MMSI: 240438000.

Date/timePositionNaut miles runAvg speedWind from/ knotsBaromVisibWave heightAir tempDewpointWater temp
2017-Aug-17 13:33N 37°25' E 025°55'010.0
2017-Aug-17 13:30N 37°25' E 025°55'5 9.7
2017-Aug-17 13:01N 37°27' E 025°49'5 9.7
2017-Aug-17 12:28N 37°29' E 025°43'4 9.7
2017-Aug-17 12:00N 37°30' E 025°38'510.0
2017-Aug-17 11:30N 37°31' E 025°31'5 9.6
2017-Aug-17 11:01N 37°31' E 025°25'5 8.9
2017-Aug-17 10:27N 37°30' E 025°19'2 5.6
2017-Aug-17 10:01N 37°28' E 025°20'0 0.5
2017-Aug-17 09:29N 37°27' E 025°19'0 0.0
2017-Aug-17 08:59N 37°27' E 025°19'0 0.0
2017-Aug-17 08:29N 37°27' E 025°19'0 0.5
2017-Aug-17 08:00N 37°28' E 025°19'0 0.4
2017-Aug-17 07:30N 37°28' E 025°19'0 0.0
2017-Aug-17 07:00N 37°28' E 025°19'0 0.0
2017-Aug-17 06:30N 37°28' E 025°19'3 5.4
2017-Aug-17 06:00N 37°29' E 025°17'5 9.7
2017-Aug-17 05:31N 37°31' E 025°11'510.6
2017-Aug-17 05:01N 37°31' E 025°04'510.7
2017-Aug-17 04:31N 37°32' E 024°57'510.6
2017-Aug-17 04:01N 37°32' E 024°51'510.4
2017-Aug-17 03:31N 37°33' E 024°44'3710.3
2017-Aug-16 23:53N 37°36' E 023°57'511.9
2017-Aug-16 23:30N 37°37' E 023°52'611.9
2017-Aug-16 23:01N 37°39' E 023°45'611.2
2017-Aug-16 22:31N 37°43' E 023°40'611.7
2017-Aug-16 22:01N 37°48' E 023°37'510.7
2017-Aug-16 21:31N 37°50' E 023°31'611.6
2017-Aug-16 21:00N 37°53' E 023°24'5 9.3
2017-Aug-16 20:31N 37°57' E 023°24'4 7.9
2017-Aug-16 20:01N 38°00' E 023°28'611.1
2017-Aug-16 19:31N 38°02' E 023°34'1 2.0
2017-Aug-16 18:59N 38°02' E 023°36'0 0.0
2017-Aug-16 18:29N 38°02' E 023°36'0 0.0
2017-Aug-16 17:59N 38°02' E 023°36'0 0.0
2017-Aug-16 17:29N 38°02' E 023°36'0 0.0
2017-Aug-16 16:59N 38°02' E 023°36'0 0.0
2017-Aug-16 16:29N 38°02' E 023°36'0 0.0
2017-Aug-16 15:59N 38°02' E 023°36'0 0.0
2017-Aug-16 15:29N 38°02' E 023°36'0 0.0
2017-Aug-16 14:59N 38°02' E 023°36'0 0.0
2017-Aug-16 14:29N 38°02' E 023°36'0 0.0
2017-Aug-16 13:59N 38°02' E 023°36'0 0.0
2017-Aug-16 13:29N 38°02' E 023°36'0 0.0
2017-Aug-16 12:59N 38°02' E 023°36'0 0.0
2017-Aug-16 12:29N 38°02' E 023°36'0 0.0
2017-Aug-16 11:59N 38°02' E 023°36'0 0.0
2017-Aug-16 11:29N 38°02' E 023°36'0 0.0
2017-Aug-16 10:59N 38°02' E 023°36'0 0.0
2017-Aug-16 10:29N 38°02' E 023°36'3 5.7
2017-Aug-16 10:00N 38°02' E 023°32'0 0.1
2017-Aug-16 09:30N 38°02' E 023°32'0 0.0
2017-Aug-16 09:00N 38°02' E 023°32'0 0.0
2017-Aug-16 08:30N 38°02' E 023°32'0 0.0
2017-Aug-16 08:00N 38°02' E 023°32'0 0.0
2017-Aug-16 07:30N 38°02' E 023°32'0 0.0
2017-Aug-16 07:00N 38°02' E 023°32'0 0.0
2017-Aug-16 06:30N 38°02' E 023°32'0 0.0
2017-Aug-16 06:00N 38°02' E 023°32'0 0.0
2017-Aug-16 05:30N 38°02' E 023°32'0 0.0
2017-Aug-16 05:00N 38°02' E 023°32'0 0.0
2017-Aug-16 04:27N 38°02' E 023°32'2 5.2
2017-Aug-16 04:00N 37°60' E 023°33'5 9.2
2017-Aug-16 03:31N 37°56' E 023°35'5 9.4
2017-Aug-16 03:00N 37°52' E 023°38'510.7
2017-Aug-16 02:31N 37°47' E 023°41'510.8
2017-Aug-16 02:01N 37°42' E 023°44'5 9.8
2017-Aug-16 01:30N 37°39' E 023°50'1210.8
2017-Aug-16 00:26N 37°38' E 024°04'  
2017-Aug-13 15:50N 39°02' E 024°07'4911.1
2017-Aug-13 11:26N 39°39' E 024°48'711.3
2017-Aug-13 10:52N 39°44' E 024°54'710.8
2017-Aug-13 10:12N 39°50' E 024°60'210.6
2017-Aug-13 10:00N 39°51' E 025°01'2 0.3
2017-Aug-13 03:43N 39°52' E 025°03'1 4.6
2017-Aug-13 03:31N 39°52' E 025°02'3 5.9
2017-Aug-13 02:59N 39°49' E 025°02'  
2017-Aug-09 07:55N 37°23' E 025°55'410.6
2017-Aug-09 07:31N 37°24' E 025°50'510.6
2017-Aug-09 07:00N 37°26' E 025°43'510.9
2017-Aug-09 06:31N 37°27' E 025°37'611.2
2017-Aug-09 06:01N 37°29' E 025°30'611.1
2017-Aug-09 05:30N 37°31' E 025°23'4 8.5
2017-Aug-09 05:01N 37°29' E 025°18'2 3.8
2017-Aug-09 04:30N 37°28' E 025°19'0 0.0
2017-Aug-09 04:00N 37°28' E 025°19'0 0.0
2017-Aug-09 03:30N 37°28' E 025°19'0 0.0
2017-Aug-09 03:00N 37°28' E 025°19'0 0.0
2017-Aug-09 02:30N 37°28' E 025°19'0 0.5
2017-Aug-09 02:01N 37°28' E 025°19'510.8
2017-Aug-09 01:30N 37°29' E 025°13'510.6
2017-Aug-09 01:01N 37°30' E 025°06'610.9
2017-Aug-09 00:30N 37°31' E 024°59'511.4
2017-Aug-09 00:01N 37°32' E 024°52'510.9
2017-Aug-08 23:30N 37°31' E 024°45'  

Dump ship's entire track history